Time;durP1;ratioP1;P1;durP2;ratioP2;P2;SDS_P1;SDS_P2;PMS_P1;PMS_P2;Temp;Humidity;BMP_temperature;BMP_pressure;BME280_temperature;BME280_humidity;BME280_pressure;Samples;Min_cycle;Max_cycle;Signal;HPM_P1;HPM_P2
2023/07/30 00:01:33;;;;;;;8.63;6.40;;;15.50;99.90;;;;;;5067447;28;20227;-83
2023/07/30 00:04:00;;;;;;;8.00;6.33;;;15.50;99.90;;;;;;5064815;28;20228;-83
2023/07/30 00:06:27;;;;;;;6.47;5.87;;;15.50;99.90;;;;;;5071483;28;20231;-82
2023/07/30 00:08:54;;;;;;;7.17;6.40;;;15.50;99.90;;;;;;5064192;28;20273;-82
2023/07/30 00:11:21;;;;;;;6.00;5.30;;;15.60;99.90;;;;;;5069422;28;20251;-81
2023/07/30 00:13:49;;;;;;;8.50;5.97;;;15.60;99.90;;;;;;5068925;28;20246;-82
2023/07/30 00:16:16;;;;;;;6.43;5.40;;;15.70;99.90;;;;;;5060029;28;20272;-81
2023/07/30 00:18:43;;;;;;;7.67;5.53;;;15.70;99.90;;;;;;5066613;28;20381;-82
2023/07/30 00:21:10;;;;;;;6.03;5.27;;;15.70;99.90;;;;;;5067969;28;20261;-81
2023/07/30 00:23:37;;;;;;;5.97;5.47;;;15.70;99.90;;;;;;5056610;28;20281;-81
2023/07/30 00:26:04;;;;;;;7.63;5.13;;;15.70;99.90;;;;;;5064799;28;20231;-81
2023/07/30 00:28:31;;;;;;;8.63;5.40;;;15.70;99.90;;;;;;5068012;28;20226;-81
2023/07/30 00:30:59;;;;;;;8.37;5.67;;;15.70;99.90;;;;;;5056053;28;20231;-81
2023/07/30 00:33:26;;;;;;;7.97;4.53;;;15.70;99.90;;;;;;5081448;28;20231;-81
2023/07/30 00:35:53;;;;;;;7.00;5.07;;;15.70;99.90;;;;;;5067058;28;20932;-81
2023/07/30 00:38:20;;;;;;;6.43;4.70;;;15.70;99.90;;;;;;5067540;28;20230;-81
2023/07/30 00:40:47;;;;;;;6.80;4.90;;;15.70;99.90;;;;;;5066120;28;20249;-81
2023/07/30 00:43:14;;;;;;;5.07;4.57;;;15.60;99.90;;;;;;5066059;28;20223;-80
2023/07/30 00:45:43;;;;;;;5.90;4.83;;;15.60;99.90;;;;;;5069222;28;20243;-81
2023/07/30 00:48:13;;;;;;;6.53;5.07;;;15.60;99.90;;;;;;5061486;28;20716;-82
2023/07/30 00:50:41;;;;;;;5.93;4.57;;;15.50;99.90;;;;;;5066083;28;20231;-81
2023/07/30 00:53:10;;;;;;;5.43;4.57;;;15.50;99.90;;;;;;5062298;28;20227;-81
2023/07/30 00:55:37;;;;;;;4.50;3.90;;;15.50;99.90;;;;;;5062608;28;20227;-81
2023/07/30 00:58:05;;;;;;;5.90;4.50;;;15.50;99.90;;;;;;5064228;28;20223;-81
2023/07/30 01:00:32;;;;;;;5.87;4.23;;;15.50;99.90;;;;;;5066564;28;20244;-80
2023/07/30 01:02:59;;;;;;;5.10;4.47;;;15.50;99.90;;;;;;5070773;28;20680;-81
2023/07/30 01:05:27;;;;;;;5.67;4.40;;;15.40;99.90;;;;;;5076299;28;20304;-81
2023/07/30 01:07:54;;;;;;;5.33;4.67;;;15.40;99.90;;;;;;5059469;28;20816;-81
2023/07/30 01:10:22;;;;;;;7.63;4.70;;;15.40;99.90;;;;;;5051288;28;20303;-81
2023/07/30 01:12:49;;;;;;;5.23;4.70;;;15.40;99.90;;;;;;5055663;28;20231;-80
2023/07/30 01:15:16;;;;;;;6.77;4.40;;;15.40;99.90;;;;;;5055071;28;20222;-79
2023/07/30 01:17:43;;;;;;;5.07;4.53;;;15.40;99.90;;;;;;5069380;28;20231;-80
2023/07/30 01:20:11;;;;;;;4.63;4.20;;;15.40;99.90;;;;;;5053238;28;20249;-80
2023/07/30 01:22:39;;;;;;;9.07;4.83;;;15.40;99.90;;;;;;5066105;28;20292;-81
2023/07/30 01:25:07;;;;;;;7.23;4.10;;;15.40;99.90;;;;;;5071939;28;20314;-82
2023/07/30 01:27:40;;;;;;;4.50;3.90;;;15.40;99.90;;;;;;5070598;28;20240;-81
2023/07/30 01:30:25;;;;;;;5.53;3.67;;;15.40;99.90;;;;;;5070126;28;20230;-81
2023/07/30 01:32:53;;;;;;;4.30;3.87;;;15.40;99.90;;;;;;5056883;28;20819;-81
2023/07/30 01:35:22;;;;;;;4.73;4.10;;;15.40;99.90;;;;;;5051293;28;20266;-80
2023/07/30 01:37:52;;;;;;;4.30;3.70;;;15.40;99.90;;;;;;5049750;28;20226;-81
2023/07/30 01:40:19;;;;;;;4.60;3.60;;;15.30;99.90;;;;;;5088065;28;20249;-81
2023/07/30 01:42:46;;;;;;;4.53;4.03;;;15.30;99.90;;;;;;5091602;28;20236;-81
2023/07/30 01:45:12;;;;;;;4.87;4.10;;;15.30;99.90;;;;;;5056162;28;20675;-81
2023/07/30 01:47:39;;;;;;;3.80;3.50;;;15.20;99.90;;;;;;5051977;28;20249;-81
2023/07/30 01:50:07;;;;;;;5.20;3.57;;;15.20;99.90;;;;;;5053450;28;20282;-81
2023/07/30 01:52:34;;;;;;;3.93;3.53;;;15.20;99.90;;;;;;5053481;28;20321;-82
2023/07/30 01:55:02;;;;;;;4.33;3.53;;;15.10;99.90;;;;;;5072669;28;20253;-81
2023/07/30 01:57:29;;;;;;;6.43;3.40;;;15.10;99.90;;;;;;5072005;28;20226;-81
2023/07/30 01:59:55;;;;;;;5.47;3.90;;;15.00;99.90;;;;;;5070908;28;20921;-81
2023/07/30 02:02:22;;;;;;;3.83;3.40;;;15.00;99.90;;;;;;5062246;28;20219;-82
2023/07/30 02:04:49;;;;;;;4.40;3.43;;;14.90;99.90;;;;;;5070881;28;20323;-81
2023/07/30 02:07:16;;;;;;;3.80;3.50;;;14.90;99.90;;;;;;5072941;28;20226;-82
2023/07/30 02:09:42;;;;;;;5.77;4.07;;;14.80;99.90;;;;;;5071839;28;20307;-81
2023/07/30 02:12:11;;;;;;;4.87;4.27;;;14.80;99.90;;;;;;5071566;28;20252;-81
2023/07/30 02:14:38;;;;;;;5.63;4.17;;;14.80;99.90;;;;;;5070388;28;20238;-82
2023/07/30 02:17:05;;;;;;;5.47;4.13;;;14.80;99.90;;;;;;5053227;28;20239;-81
2023/07/30 02:19:32;;;;;;;6.03;4.40;;;14.80;99.90;;;;;;5054763;28;20250;-81
2023/07/30 02:21:59;;;;;;;5.53;5.00;;;14.80;99.90;;;;;;5050707;28;20231;-82
2023/07/30 02:24:26;;;;;;;5.40;4.47;;;14.80;99.90;;;;;;5049445;28;20289;-81
2023/07/30 02:26:52;;;;;;;4.80;4.30;;;14.80;99.90;;;;;;5064729;28;20225;-81
2023/07/30 02:29:20;;;;;;;6.50;4.50;;;14.80;99.90;;;;;;5089536;28;20566;-81
2023/07/30 02:31:47;;;;;;;6.20;4.60;;;14.80;99.90;;;;;;5090224;28;20251;-81
2023/07/30 02:34:14;;;;;;;5.50;4.90;;;14.80;99.90;;;;;;5074991;28;20230;-81
2023/07/30 02:36:41;;;;;;;6.17;5.20;;;14.80;99.90;;;;;;5070000;28;20326;-82
2023/07/30 02:39:07;;;;;;;6.07;5.17;;;14.80;99.90;;;;;;5069965;28;20254;-82
2023/07/30 02:41:34;;;;;;;6.43;5.07;;;14.80;99.90;;;;;;5069787;28;20226;-82
2023/07/30 02:44:01;;;;;;;6.97;5.63;;;14.80;99.90;;;;;;5070610;28;20237;-81
2023/07/30 02:46:29;;;;;;;7.50;5.63;;;14.70;99.90;;;;;;5058854;28;20305;-81
2023/07/30 02:48:56;;;;;;;7.20;5.23;;;14.70;99.90;;;;;;5050210;28;20253;-81
2023/07/30 02:51:22;;;;;;;6.97;5.70;;;14.70;99.90;;;;;;5047948;28;20235;-80
2023/07/30 02:53:53;;;;;;;5.87;5.27;;;14.70;99.90;;;;;;5048759;28;20258;-81
2023/07/30 02:56:19;;;;;;;6.40;5.73;;;14.60;99.90;;;;;;5049237;28;20282;-82
2023/07/30 02:58:46;;;;;;;6.63;5.47;;;14.60;99.90;;;;;;5050054;28;20334;-81
2023/07/30 03:01:13;;;;;;;7.97;6.47;;;14.60;99.90;;;;;;5049225;28;20751;-81
2023/07/30 03:03:41;;;;;;;6.90;5.80;;;14.60;99.90;;;;;;5049970;28;20315;-82
2023/07/30 03:06:08;;;;;;;7.47;5.73;;;14.60;99.90;;;;;;5059247;28;20275;-82
2023/07/30 03:08:35;;;;;;;6.90;6.20;;;14.60;99.90;;;;;;5071030;28;20232;-82
2023/07/30 03:11:02;;;;;;;6.90;6.20;;;14.50;99.90;;;;;;5061557;28;21017;-81
2023/07/30 03:13:29;;;;;;;8.53;6.27;;;14.50;99.90;;;;;;5051103;28;20227;-82
2023/07/30 03:15:56;;;;;;;8.27;6.60;;;14.50;99.90;;;;;;5065672;28;20226;-81
2023/07/30 03:18:23;;;;;;;7.07;6.37;;;14.50;99.90;;;;;;5055623;28;20220;-81
2023/07/30 03:20:51;;;;;;;7.53;6.67;;;14.40;99.90;;;;;;5074975;28;20315;-83
2023/07/30 03:23:18;;;;;;;7.43;6.13;;;14.40;99.90;;;;;;5071313;28;20806;-82
2023/07/30 03:25:44;;;;;;;8.40;6.90;;;14.40;99.90;;;;;;5058454;28;20280;-82
2023/07/30 03:28:11;;;;;;;7.43;6.60;;;14.40;99.90;;;;;;5051813;28;20320;-82
2023/07/30 03:30:38;;;;;;;8.47;6.23;;;14.40;99.90;;;;;;5050455;28;20282;-82
2023/07/30 03:33:06;;;;;;;8.47;7.20;;;14.30;99.90;;;;;;5048757;28;20229;-81
2023/07/30 03:35:32;;;;;;;9.10;6.47;;;14.30;99.90;;;;;;5061607;28;20249;-82
2023/07/30 03:38:00;;;;;;;9.03;6.80;;;14.30;99.90;;;;;;5072986;28;20224;-82
2023/07/30 03:40:29;;;;;;;7.60;6.73;;;14.20;99.90;;;;;;5062626;28;20854;-82
2023/07/30 03:42:56;;;;;;;8.43;7.57;;;14.20;99.90;;;;;;5059212;28;20267;-82
2023/07/30 03:45:22;;;;;;;9.00;7.37;;;14.20;99.90;;;;;;5062248;28;20298;-82
2023/07/30 03:47:49;;;;;;;10.40;8.27;;;14.20;99.90;;;;;;5070842;28;20307;-82
2023/07/30 03:50:16;;;;;;;8.63;7.73;;;14.20;99.90;;;;;;5069186;28;20313;-82
2023/07/30 03:52:43;;;;;;;9.23;7.50;;;14.10;99.90;;;;;;5068160;28;20322;-82
2023/07/30 03:55:11;;;;;;;10.37;7.70;;;14.10;99.90;;;;;;5056967;28;20226;-81
2023/07/30 03:57:37;;;;;;;11.17;7.90;;;14.10;99.90;;;;;;5056921;28;20634;-82
2023/07/30 04:00:05;;;;;;;9.57;7.43;;;14.10;99.90;;;;;;5065957;28;20256;-82
2023/07/30 04:02:41;;;;;;;9.37;7.43;;;14.10;99.90;;;;;;5072811;28;20467;-82
2023/07/30 04:05:07;;;;;;;10.03;7.87;;;14.10;99.90;;;;;;5072670;28;20234;-82
2023/07/30 04:07:34;;;;;;;8.93;8.00;;;14.10;99.90;;;;;;5061574;28;20296;-82
2023/07/30 04:10:01;;;;;;;8.03;7.23;;;14.10;99.90;;;;;;5053108;28;20237;-81
2023/07/30 04:12:29;;;;;;;8.67;7.77;;;14.00;99.90;;;;;;5052828;28;20320;-81
2023/07/30 04:14:55;;;;;;;9.87;8.37;;;14.10;99.90;;;;;;5059719;28;20249;-82
2023/07/30 04:17:22;;;;;;;11.23;8.73;;;14.10;99.90;;;;;;5073571;28;20320;-82
2023/07/30 04:19:49;;;;;;;10.63;8.00;;;14.10;99.90;;;;;;5059775;28;20227;-82
2023/07/30 04:22:16;;;;;;;9.70;8.07;;;14.10;99.90;;;;;;5068717;28;20308;-82
2023/07/30 04:24:42;;;;;;;11.00;9.17;;;14.10;99.90;;;;;;5069238;28;20292;-82
2023/07/30 04:27:10;;;;;;;12.13;8.63;;;14.10;99.90;;;;;;5066957;28;20228;-81
2023/07/30 04:29:38;;;;;;;9.30;7.70;;;14.10;99.90;;;;;;5054915;28;20239;-81
2023/07/30 04:32:06;;;;;;;9.63;8.20;;;14.20;99.90;;;;;;5053401;28;20239;-83
2023/07/30 04:34:33;;;;;;;11.97;8.77;;;14.20;99.90;;;;;;5057679;28;20229;-81
2023/07/30 04:37:00;;;;;;;10.87;9.00;;;14.20;99.90;;;;;;5064557;28;20580;-83
2023/07/30 04:39:27;;;;;;;13.07;9.50;;;14.20;99.90;;;;;;5065758;28;20225;-82
2023/07/30 04:41:54;;;;;;;13.10;9.03;;;14.20;99.90;;;;;;5071445;28;20221;-82
2023/07/30 04:44:21;;;;;;;13.77;9.67;;;14.30;99.90;;;;;;5063029;28;20245;-81
2023/07/30 04:46:50;;;;;;;12.40;9.37;;;14.30;99.90;;;;;;5062998;28;20229;-82
2023/07/30 04:49:17;;;;;;;12.87;9.60;;;14.30;99.90;;;;;;5056058;28;20731;-81
2023/07/30 04:51:44;;;;;;;13.97;9.80;;;14.30;99.90;;;;;;5062952;28;20230;-80
2023/07/30 04:54:12;;;;;;;12.63;8.63;;;14.40;99.90;;;;;;5065056;28;20326;-81
2023/07/30 04:56:39;;;;;;;12.77;9.70;;;14.40;99.90;;;;;;5065484;28;20307;-80
2023/07/30 04:59:06;;;;;;;16.23;10.03;;;14.40;99.90;;;;;;5064068;28;20218;-80
2023/07/30 05:01:33;;;;;;;14.70;9.43;;;14.50;99.90;;;;;;5084669;28;20648;-80
2023/07/30 05:04:02;;;;;;;12.43;9.70;;;14.50;99.90;;;;;;5061852;28;20217;-80
2023/07/30 05:06:29;;;;;;;12.57;9.27;;;14.50;99.90;;;;;;5067078;28;20986;-81
2023/07/30 05:08:55;;;;;;;14.97;9.63;;;14.60;99.90;;;;;;5064252;28;20730;-80
2023/07/30 05:11:23;;;;;;;11.00;8.37;;;14.60;99.90;;;;;;5064512;28;20225;-80
2023/07/30 05:13:50;;;;;;;13.67;8.70;;;14.70;99.90;;;;;;5063871;28;20980;-80
2023/07/30 05:16:17;;;;;;;12.90;8.50;;;14.80;99.90;;;;;;5069675;28;20283;-80
2023/07/30 05:18:43;;;;;;;13.77;9.23;;;14.80;99.90;;;;;;5063914;28;20215;-80
2023/07/30 05:21:12;;;;;;;12.67;8.83;;;14.90;99.90;;;;;;5066174;28;20226;-80
2023/07/30 05:23:38;;;;;;;14.03;7.90;;;14.90;99.90;;;;;;5064308;28;20223;-80
2023/07/30 05:26:05;;;;;;;13.07;8.63;;;15.10;99.90;;;;;;5063589;28;20226;-80
2023/07/30 05:28:32;;;;;;;12.33;7.53;;;15.00;99.90;;;;;;5057192;28;20238;-80
2023/07/30 05:30:59;;;;;;;11.90;7.60;;;15.10;99.90;;;;;;5059447;28;20220;-81
2023/07/30 05:33:26;;;;;;;12.93;7.23;;;15.20;99.90;;;;;;5067417;28;20249;-80
2023/07/30 05:35:53;;;;;;;11.13;7.30;;;15.20;99.90;;;;;;5065989;28;20285;-81
2023/07/30 05:38:21;;;;;;;13.77;7.70;;;15.30;99.90;;;;;;5062429;28;20295;-80
2023/07/30 05:40:47;;;;;;;12.77;7.47;;;15.40;99.90;;;;;;5073632;28;20218;-81
2023/07/30 05:43:14;;;;;;;15.00;7.17;;;15.40;99.90;;;;;;5072941;28;20309;-82
2023/07/30 05:45:42;;;;;;;13.13;8.27;;;15.40;99.90;;;;;;5070314;28;20229;-82
2023/07/30 05:48:09;;;;;;;12.10;7.63;;;15.50;99.90;;;;;;5059295;28;20234;-82
2023/07/30 05:50:36;;;;;;;12.80;7.63;;;15.50;99.90;;;;;;5065973;28;20227;-81
2023/07/30 05:53:03;;;;;;;13.27;7.40;;;15.60;99.90;;;;;;5069748;28;20253;-81
2023/07/30 05:55:31;;;;;;;13.33;7.00;;;15.60;99.90;;;;;;5058661;28;20254;-81
2023/07/30 05:57:59;;;;;;;11.40;7.00;;;15.70;99.90;;;;;;5063739;28;20249;-82
2023/07/30 06:00:28;;;;;;;15.63;7.70;;;15.80;99.90;;;;;;5070757;28;20228;-82
2023/07/30 06:02:55;;;;;;;14.10;7.67;;;15.90;99.90;;;;;;5047851;28;20697;-83
2023/07/30 06:05:22;;;;;;;15.03;7.37;;;15.80;99.90;;;;;;5069330;28;20226;-82
2023/07/30 06:07:48;;;;;;;12.37;7.37;;;15.90;99.90;;;;;;5074004;28;20233;-82
2023/07/30 06:10:15;;;;;;;9.60;7.17;;;16.00;99.90;;;;;;5074660;28;20282;-82
2023/07/30 06:12:43;;;;;;;11.03;6.63;;;16.00;99.90;;;;;;5067839;28;20824;-82
2023/07/30 06:15:10;;;;;;;15.77;7.70;;;16.00;99.90;;;;;;5062207;28;20657;-82
2023/07/30 06:17:37;;;;;;;14.03;7.70;;;16.10;99.90;;;;;;5072433;28;20227;-83
2023/07/30 06:20:05;;;;;;;12.67;7.10;;;16.10;99.90;;;;;;5062505;28;20305;-82
2023/07/30 06:22:31;;;;;;;9.47;6.60;;;16.20;99.90;;;;;;5067497;28;20244;-82
2023/07/30 06:24:58;;;;;;;11.40;7.33;;;16.20;99.90;;;;;;5063965;28;20230;-82
2023/07/30 06:27:25;;;;;;;13.70;7.33;;;16.30;99.90;;;;;;5066458;28;20895;-83
2023/07/30 06:29:53;;;;;;;13.47;6.53;;;16.30;99.90;;;;;;5068630;28;20738;-82
2023/07/30 06:32:20;;;;;;;14.23;7.03;;;16.40;99.90;;;;;;5066712;28;20234;-82
2023/07/30 06:34:46;;;;;;;14.00;7.47;;;16.50;99.90;;;;;;5070212;28;20226;-82
2023/07/30 06:37:13;;;;;;;18.53;8.33;;;16.50;99.90;;;;;;5068857;28;20228;-83
2023/07/30 06:39:40;;;;;;;13.30;7.80;;;16.60;99.90;;;;;;5062727;28;20327;-83
2023/07/30 06:42:08;;;;;;;15.77;7.93;;;16.70;99.90;;;;;;5068799;28;20216;-83
2023/07/30 06:44:35;;;;;;;13.73;8.10;;;16.90;99.90;;;;;;5068937;28;20228;-82
2023/07/30 06:47:03;;;;;;;18.83;8.80;;;17.00;99.90;;;;;;5066093;28;20237;-82
2023/07/30 06:49:30;;;;;;;18.77;9.30;;;17.10;99.90;;;;;;5062356;28;20285;-82
2023/07/30 06:51:57;;;;;;;15.63;7.83;;;17.20;99.90;;;;;;5060491;28;20219;-83
2023/07/30 06:54:23;;;;;;;15.80;8.13;;;17.40;99.90;;;;;;5064606;28;20309;-83
2023/07/30 06:56:50;;;;;;;16.80;8.87;;;17.50;99.90;;;;;;5059191;28;20231;-83
2023/07/30 06:59:17;;;;;;;12.93;9.00;;;17.60;99.90;;;;;;5063359;28;20243;-83
2023/07/30 07:01:43;;;;;;;17.60;9.13;;;17.80;99.90;;;;;;5060460;28;20226;-83
2023/07/30 07:04:11;;;;;;;17.57;9.70;;;17.90;99.90;;;;;;5063149;28;20219;-83
2023/07/30 07:06:38;;;;;;;18.83;10.30;;;18.00;99.90;;;;;;5067011;28;20233;-82
2023/07/30 07:09:05;;;;;;;18.77;10.97;;;18.20;99.90;;;;;;5080809;28;20938;-83
2023/07/30 07:11:31;;;;;;;18.27;10.98;;;18.30;99.90;;;;;;5063804;28;20227;-81
2023/07/30 07:13:58;;;;;;;17.83;11.15;;;18.40;99.90;;;;;;5063285;28;20229;-83
2023/07/30 07:16:25;;;;;;;19.25;10.85;;;18.50;99.90;;;;;;5058480;28;20223;-83
2023/07/30 07:18:52;;;;;;;14.55;10.15;;;18.60;99.90;;;;;;5065429;28;20862;-83
2023/07/30 07:21:20;;;;;;;18.60;10.60;;;18.80;99.90;;;;;;5065172;28;20231;-83
2023/07/30 07:23:47;;;;;;;17.50;9.90;;;18.90;99.90;;;;;;5066649;28;20246;-84
2023/07/30 07:26:14;;;;;;;16.67;9.95;;;19.10;99.90;;;;;;5069667;28;20276;-83
2023/07/30 07:28:41;;;;;;;19.25;11.25;;;19.20;99.90;;;;;;5060035;28;20219;-83
2023/07/30 07:31:07;;;;;;;19.55;11.15;;;19.30;99.90;;;;;;5050111;28;20306;-83
2023/07/30 07:33:34;;;;;;;21.00;11.15;;;19.40;99.90;;;;;;5051674;28;20224;-83
2023/07/30 07:36:05;;;;;;;20.38;11.30;;;19.40;99.90;;;;;;5062523;28;20309;-83
2023/07/30 07:38:34;;;;;;;18.83;11.13;;;19.40;99.90;;;;;;5082488;28;20227;-84
2023/07/30 07:41:01;;;;;;;18.02;11.43;;;19.30;99.90;;;;;;5056228;28;20311;-82
2023/07/30 07:43:28;;;;;;;15.90;11.07;;;19.30;99.90;;;;;;5051453;28;20232;-83
2023/07/30 07:45:54;;;;;;;18.42;11.52;;;19.30;99.90;;;;;;5065115;28;20278;-81
2023/07/30 07:48:21;;;;;;;14.23;9.65;;;19.30;99.90;;;;;;5081774;28;20588;-77
2023/07/30 07:50:48;;;;;;;24.80;11.68;;;19.30;99.90;;;;;;5078306;28;20223;-78
2023/07/30 07:53:14;;;;;;;17.75;9.60;;;19.40;99.90;;;;;;5059751;28;20254;-79
2023/07/30 07:55:42;;;;;;;18.92;10.30;;;19.50;99.90;;;;;;5055304;28;20641;-78
2023/07/30 07:58:09;;;;;;;16.90;8.25;;;19.80;99.90;;;;;;5055904;28;20231;-79
2023/07/30 08:00:35;;;;;;;15.45;7.40;;;20.10;99.90;;;;;;5063824;28;20283;-78
2023/07/30 08:03:02;;;;;;;17.48;7.05;;;20.60;99.90;;;;;;5063738;28;20718;-79
2023/07/30 08:05:29;;;;;;;14.88;6.32;;;21.10;99.90;;;;;;5067009;28;20841;-81
2023/07/30 08:07:55;;;;;;;17.67;6.13;;;21.70;99.90;;;;;;5065284;28;20220;-79
2023/07/30 08:10:22;;;;;;;9.85;5.28;;;22.20;99.90;;;;;;5064025;28;20223;-78
2023/07/30 08:12:52;;;;;;;13.88;5.28;;;22.50;99.90;;;;;;5053322;28;20964;-79
2023/07/30 08:15:22;;;;;;;13.68;4.97;;;22.90;99.90;;;;;;5067679;28;20588;-78
2023/07/30 08:17:48;;;;;;;17.65;5.30;;;23.30;99.90;;;;;;5060093;28;20241;-78
2023/07/30 08:20:15;;;;;;;13.80;5.45;;;23.70;99.90;;;;;;5064987;28;20250;-79
2023/07/30 08:22:42;;;;;;;11.13;4.82;;;24.10;99.90;;;;;;5060835;28;20227;-78
2023/07/30 08:25:09;;;;;;;9.68;4.65;;;24.50;99.90;;;;;;5064135;28;20219;-79
2023/07/30 08:27:35;;;;;;;10.65;4.80;;;24.80;99.90;;;;;;5059674;28;20295;-79
2023/07/30 08:30:04;;;;;;;10.63;4.55;;;25.10;99.90;;;;;;5065800;28;20240;-79
2023/07/30 08:32:30;;;;;;;11.07;4.15;;;25.30;99.90;;;;;;5056525;28;20228;-79
2023/07/30 08:34:57;;;;;;;8.75;4.40;;;25.40;99.90;;;;;;5055652;28;20485;-79
2023/07/30 08:37:24;;;;;;;9.25;4.40;;;25.60;99.90;;;;;;5060111;28;20241;-79
2023/07/30 08:39:51;;;;;;;11.10;4.53;;;25.70;99.90;;;;;;5065236;28;20227;-78
2023/07/30 08:42:17;;;;;;;16.70;5.10;;;25.90;99.90;;;;;;5060940;28;20215;-79
2023/07/30 08:44:44;;;;;;;10.07;4.78;;;26.00;99.90;;;;;;5067346;28;20314;-79
2023/07/30 08:47:12;;;;;;;8.68;3.97;;;26.10;99.90;;;;;;5055439;28;20322;-79
2023/07/30 08:49:39;;;;;;;11.52;4.03;;;26.10;99.90;;;;;;5063774;28;20219;-78
2023/07/30 08:52:09;;;;;;;13.05;4.47;;;26.10;99.90;;;;;;5055013;28;20220;-79
2023/07/30 08:54:38;;;;;;;11.88;4.85;;;26.00;99.90;;;;;;5060932;28;20215;-79
2023/07/30 08:57:05;;;;;;;9.10;3.72;;;26.00;99.90;;;;;;5061863;28;20235;-79
2023/07/30 08:59:38;;;;;;;11.95;3.45;;;25.90;99.90;;;;;;5058968;28;20231;-78
2023/07/30 09:02:08;;;;;;;10.25;3.60;;;26.00;99.90;;;;;;5057851;28;20344;-79
2023/07/30 09:04:39;;;;;;;8.15;3.50;;;26.00;99.90;;;;;;5057121;28;20228;-78
2023/07/30 09:07:09;;;;;;;12.73;3.60;;;26.10;99.90;;;;;;5073672;28;20224;-79
2023/07/30 09:09:37;;;;;;;8.05;3.28;;;26.20;99.90;;;;;;5058827;28;20220;-77
2023/07/30 09:12:05;;;;;;;7.45;3.13;;;26.20;99.10;;;;;;5058853;28;20242;-80
2023/07/30 09:14:31;;;;;;;9.05;3.58;;;26.00;99.30;;;;;;5054159;28;20219;-79
2023/07/30 09:16:58;;;;;;;7.47;2.92;;;25.70;99.70;;;;;;5058072;28;20234;-78
2023/07/30 09:19:25;;;;;;;9.77;3.50;;;25.40;99.80;;;;;;5060055;28;20219;-79
2023/07/30 09:21:53;;;;;;;7.90;3.63;;;25.10;99.90;;;;;;5065181;28;20258;-79
2023/07/30 09:24:22;;;;;;;10.60;3.20;;;24.80;99.90;;;;;;5064079;28;20231;-79
2023/07/30 09:26:49;;;;;;;11.13;3.38;;;24.50;99.90;;;;;;5061106;28;20223;-78
2023/07/30 09:29:16;;;;;;;7.13;2.90;;;24.20;99.90;;;;;;5055982;28;20319;-78
2023/07/30 09:31:50;;;;;;;10.30;3.35;;;24.10;99.90;;;;;;5060032;28;20251;-78
2023/07/30 09:34:18;;;;;;;7.82;3.00;;;24.00;99.90;;;;;;5057987;28;20773;-79
2023/07/30 09:36:45;;;;;;;12.82;3.35;;;24.00;99.90;;;;;;5063218;28;20231;-79
2023/07/30 09:39:18;;;;;;;8.48;2.92;;;24.00;99.90;;;;;;5059818;28;20812;-79
2023/07/30 09:41:45;;;;;;;11.45;3.15;;;24.00;99.90;;;;;;5070014;28;21011;-79
2023/07/30 09:44:11;;;;;;;10.15;3.60;;;24.10;99.90;;;;;;5059557;28;20227;-79
2023/07/30 09:46:44;;;;;;;7.13;2.47;;;24.10;99.90;;;;;;5061032;28;20231;-79
2023/07/30 09:49:11;;;;;;;8.98;3.22;;;24.10;99.90;;;;;;5055105;28;20223;-78
2023/07/30 09:51:39;;;;;;;7.25;2.95;;;24.10;99.90;;;;;;5057265;28;20727;-79
2023/07/30 09:54:07;;;;;;;7.55;3.28;;;24.20;99.90;;;;;;5061352;28;20231;-79
2023/07/30 09:56:35;;;;;;;6.78;3.17;;;24.20;99.90;;;;;;5055900;28;20231;-79
2023/07/30 09:59:01;;;;;;;7.65;2.80;;;24.10;99.90;;;;;;5063622;28;20306;-78
2023/07/30 10:01:30;;;;;;;10.02;2.85;;;24.10;99.90;;;;;;5059333;28;20269;-79
2023/07/30 10:03:58;;;;;;;6.93;3.25;;;24.10;99.90;;;;;;5058108;28;20224;-78
2023/07/30 10:06:28;;;;;;;6.65;2.90;;;24.00;99.90;;;;;;5058974;28;20234;-79
2023/07/30 10:08:57;;;;;;;8.57;3.38;;;24.00;99.90;;;;;;5060072;28;20223;-79
2023/07/30 10:11:25;;;;;;;13.60;2.60;;;24.00;99.90;;;;;;5059445;28;20232;-78
2023/07/30 10:13:54;;;;;;;8.60;2.80;;;24.10;99.90;;;;;;5063953;28;20233;-79
2023/07/30 10:16:27;;;;;;;8.93;2.88;;;24.30;99.90;;;;;;5059256;28;20223;-79
2023/07/30 10:18:58;;;;;;;6.55;2.75;;;24.40;99.90;;;;;;5062206;28;20699;-78
2023/07/30 10:21:26;;;;;;;6.88;3.28;;;24.70;99.90;;;;;;5059693;28;20223;-79
2023/07/30 10:24:00;;;;;;;9.48;2.80;;;24.80;99.90;;;;;;5063706;28;20220;-79
2023/07/30 10:26:28;;;;;;;8.57;3.17;;;25.00;99.90;;;;;;5057918;28;20816;-78
2023/07/30 10:29:11;;;;;;;7.28;2.40;;;25.20;99.90;;;;;;5043145;28;20224;-78
2023/07/30 10:31:42;;;;;;;7.55;2.63;;;25.20;99.50;;;;;;5056753;28;20231;-80
2023/07/30 10:34:09;;;;;;;7.63;2.58;;;25.30;98.30;;;;;;5061592;28;20237;-79
2023/07/30 10:36:42;;;;;;;9.00;2.67;;;25.30;98.90;;;;;;5063229;28;20223;-80
2023/07/30 10:39:13;;;;;;;8.05;2.72;;;25.30;99.00;;;;;;5066188;28;20231;-81
2023/07/30 10:41:40;;;;;;;9.48;2.70;;;25.20;99.20;;;;;;5051885;28;20251;-80
2023/07/30 10:44:08;;;;;;;8.90;3.08;;;25.20;99.50;;;;;;5061858;28;20215;-80
2023/07/30 10:46:34;;;;;;;8.27;2.65;;;25.20;99.70;;;;;;5061820;28;20706;-80
2023/07/30 10:49:01;;;;;;;10.43;2.75;;;25.20;99.80;;;;;;5063085;28;20223;-80
2023/07/30 10:51:28;;;;;;;8.93;2.50;;;25.20;99.40;;;;;;5067485;28;20233;-80
2023/07/30 10:53:54;;;;;;;6.03;2.58;;;25.20;98.60;;;;;;5063496;28;20920;-80
2023/07/30 10:56:24;;;;;;;10.70;3.13;;;25.20;98.10;;;;;;5067150;28;20234;-80
2023/07/30 10:58:52;;;;;;;8.13;2.42;;;25.20;97.70;;;;;;5059470;28;20219;-80
2023/07/30 11:01:21;;;;;;;7.45;2.53;;;25.10;97.80;;;;;;5061708;28;20224;-80
2023/07/30 11:03:50;;;;;;;5.80;2.47;;;25.00;97.70;;;;;;5064540;28;20231;-80
2023/07/30 11:06:22;;;;;;;5.50;1.98;;;24.90;97.10;;;;;;5062303;28;20247;-80
2023/07/30 11:08:49;;;;;;;6.28;2.13;;;24.80;96.70;;;;;;5065599;28;20216;-80
2023/07/30 11:11:16;;;;;;;4.35;2.17;;;24.80;97.40;;;;;;5063422;28;20229;-80
2023/07/30 11:13:46;;;;;;;11.38;2.58;;;24.70;97.20;;;;;;5065071;28;20227;-80
2023/07/30 11:16:13;;;;;;;6.90;2.00;;;24.70;96.90;;;;;;5062120;28;20238;-81
2023/07/30 11:18:42;;;;;;;4.82;2.10;;;24.60;96.10;;;;;;5068852;28;20720;-80
2023/07/30 11:21:11;;;;;;;7.45;2.13;;;24.60;96.00;;;;;;5065280;28;20283;-80
2023/07/30 11:23:39;;;;;;;6.25;2.03;;;24.50;95.80;;;;;;5064314;28;20227;-80
2023/07/30 11:26:08;;;;;;;10.25;2.03;;;24.30;96.10;;;;;;5058641;28;20689;-80
2023/07/30 11:28:36;;;;;;;10.90;2.00;;;24.30;96.00;;;;;;5064528;28;20223;-83
2023/07/30 11:31:06;;;;;;;5.55;2.40;;;24.20;96.40;;;;;;5066565;28;20242;-82
2023/07/30 11:33:34;;;;;;;7.68;2.15;;;24.20;96.60;;;;;;5064121;28;20985;-83
2023/07/30 11:36:03;;;;;;;5.70;2.10;;;24.20;96.60;;;;;;5066595;28;20747;-83
2023/07/30 11:38:32;;;;;;;4.40;1.98;;;24.40;96.40;;;;;;5066720;28;20235;-82
2023/07/30 11:40:59;;;;;;;7.05;2.10;;;24.50;96.40;;;;;;5082288;28;20220;-83
2023/07/30 11:43:26;;;;;;;3.85;1.80;;;24.70;96.20;;;;;;5081258;28;20239;-83
2023/07/30 11:46:07;;;;;;;7.40;2.20;;;24.90;96.00;;;;;;5066958;28;20231;-84
2023/07/30 11:48:35;;;;;;;5.95;1.75;;;25.00;95.10;;;;;;5064696;28;20223;-84
2023/07/30 11:51:03;;;;;;;6.28;2.03;;;25.20;94.50;;;;;;5065476;28;20906;-83
2023/07/30 11:53:46;;;;;;;5.82;2.08;;;25.20;94.30;;;;;;5080923;28;20683;-83
2023/07/30 11:56:17;;;;;;;7.97;2.47;;;25.40;94.00;;;;;;5086600;28;20237;-83
2023/07/30 11:58:44;;;;;;;5.13;1.80;;;25.50;93.50;;;;;;5084357;28;20214;-84
2023/07/30 12:01:11;;;;;;;5.40;1.80;;;25.50;93.50;;;;;;5086531;28;20227;-84
2023/07/30 12:03:38;;;;;;;4.68;2.05;;;25.60;93.00;;;;;;5085085;28;20227;-82
2023/07/30 12:06:07;;;;;;;5.15;1.90;;;25.60;93.10;;;;;;5084683;28;20222;-81
2023/07/30 12:08:35;;;;;;;4.65;2.05;;;25.60;92.70;;;;;;5085989;28;20237;-83
2023/07/30 12:11:03;;;;;;;4.57;1.75;;;25.70;92.90;;;;;;5087303;28;20228;-83
2023/07/30 12:13:30;;;;;;;4.63;1.70;;;25.90;92.80;;;;;;5089308;28;20759;-83
2023/07/30 12:15:58;;;;;;;7.97;1.83;;;26.10;92.80;;;;;;5090316;28;20602;-84
2023/07/30 12:18:26;;;;;;;4.78;2.00;;;26.20;91.90;;;;;;5089590;28;20222;-84
2023/07/30 12:20:53;;;;;;;5.78;1.80;;;26.30;91.50;;;;;;5106003;28;20222;-83
2023/07/30 12:23:22;;;;;;;4.95;1.60;;;26.40;90.80;;;;;;5089377;28;20874;-83
2023/07/30 12:25:49;;;;;;;5.38;1.50;;;26.40;90.80;;;;;;5090452;28;20255;-83
2023/07/30 12:28:15;;;;;;;4.55;1.60;;;26.40;91.20;;;;;;5087538;28;20249;-83
2023/07/30 12:30:42;;;;;;;6.70;2.15;;;26.40;91.10;;;;;;5089211;28;20326;-83
2023/07/30 12:33:09;;;;;;;6.88;2.00;;;26.20;90.90;;;;;;5104835;28;20310;-83
2023/07/30 12:35:35;;;;;;;5.35;2.00;;;26.00;90.00;;;;;;5088663;28;20226;-83
2023/07/30 12:38:02;;;;;;;4.68;1.77;;;25.90;90.70;;;;;;5088372;28;20455;-84
2023/07/30 12:40:33;;;;;;;5.22;1.80;;;25.70;91.20;;;;;;5087606;28;20219;-83
2023/07/30 12:43:01;;;;;;;4.85;1.60;;;25.60;91.20;;;;;;5087805;28;20233;-84
2023/07/30 12:45:28;;;;;;;5.47;1.80;;;25.50;92.10;;;;;;5104310;28;20616;-84